createdAt,value
2023-04-21T00:01:13.924Z,99254.69
2023-04-21T00:06:22.771Z,99262.25
2023-04-21T00:11:26.644Z,99242.31
2023-04-21T00:16:31.823Z,99251.09
2023-04-21T00:21:37.005Z,99252.88
2023-04-21T00:26:40.384Z,99246.00
2023-04-21T00:31:45.224Z,99209.59
2023-04-21T00:36:48.752Z,99242.31
2023-04-21T00:41:52.248Z,99239.59
2023-04-21T00:46:57.247Z,99235.22
2023-04-21T00:52:00.797Z,99237.78
2023-04-21T00:57:04.651Z,99225.56
2023-04-21T01:02:09.622Z,99232.47
2023-04-21T01:07:12.910Z,99223.84
2023-04-21T01:12:16.387Z,99224.47
2023-04-21T01:17:21.730Z,99225.34
2023-04-21T01:22:26.914Z,99223.47
2023-04-21T01:27:30.584Z,99217.31
2023-04-21T01:32:34.097Z,99208.56
2023-04-21T01:37:39.434Z,99211.84
2023-04-21T01:42:44.470Z,99207.47
2023-04-21T01:47:48.063Z,99196.19
2023-04-21T01:52:53.087Z,99207.28
2023-04-21T01:57:57.878Z,99215.75
2023-04-21T02:03:01.563Z,99216.25
2023-04-21T02:08:07.150Z,99210.94
2023-04-21T02:13:10.769Z,99205.69
2023-04-21T02:18:15.100Z,99207.31
2023-04-21T02:23:19.998Z,99204.00
2023-04-21T02:28:23.422Z,99213.78
2023-04-21T02:33:27.113Z,99214.81
2023-04-21T02:38:32.136Z,99209.91
2023-04-21T02:43:35.442Z,99202.56
2023-04-21T02:48:39.021Z,99211.13
2023-04-21T02:53:43.919Z,99211.22
2023-04-21T02:58:47.462Z,99211.84
2023-04-21T03:03:51.049Z,99207.69
2023-04-21T03:08:56.865Z,99213.72
2023-04-21T03:14:00.361Z,99212.25
2023-04-21T03:19:03.908Z,99222.13
2023-04-21T03:24:09.751Z,99217.38
2023-04-21T03:29:13.278Z,99214.28
2023-04-21T03:34:16.874Z,99212.09
2023-04-21T03:39:21.993Z,99215.97
2023-04-21T03:44:27.388Z,99210.25
2023-04-21T03:49:30.868Z,99215.69
2023-04-21T03:54:35.739Z,99221.91
2023-04-21T03:59:38.981Z,99206.22
2023-04-21T04:04:42.633Z,99197.06
2023-04-21T04:09:47.656Z,99203.75
2023-04-21T04:14:51.192Z,99197.97
2023-04-21T04:19:54.709Z,99193.03
2023-04-21T04:24:59.904Z,99193.09
2023-04-21T04:30:04.813Z,99193.09
2023-04-21T04:35:09.730Z,99195.94
2023-04-21T04:40:15.548Z,99205.75
2023-04-21T04:45:21.530Z,99193.69
2023-04-21T04:50:25.271Z,99193.88
2023-04-21T04:55:30.394Z,99200.97
2023-04-21T05:00:34.013Z,99196.75
2023-04-21T05:05:37.441Z,99190.69
2023-04-21T05:10:42.354Z,99181.63
2023-04-21T05:15:45.801Z,99187.31
2023-04-21T05:20:49.279Z,99181.53
2023-04-21T05:25:53.906Z,99182.56
2023-04-21T05:30:57.322Z,99186.13
2023-04-21T05:36:00.782Z,99187.88
2023-04-21T05:41:06.408Z,99179.16
2023-04-21T05:46:11.510Z,99170.53
2023-04-21T05:51:16.649Z,99178.97
2023-04-21T05:56:21.577Z,99179.16
2023-04-21T06:01:25.414Z,99173.25
2023-04-21T06:06:29.281Z,99173.41
2023-04-21T06:11:34.678Z,99167.41
2023-04-21T06:16:38.361Z,99164.69
2023-04-21T06:21:42.088Z,99170.75
2023-04-21T06:26:47.151Z,99155.72
2023-04-21T06:31:50.747Z,99158.66
2023-04-21T06:36:54.529Z,99156.72
2023-04-21T06:41:59.424Z,99150.50
2023-04-21T06:47:02.962Z,99139.44
2023-04-21T06:52:06.624Z,99146.16
2023-04-21T06:57:11.534Z,99140.72
2023-04-21T07:02:15.063Z,99141.31
2023-04-21T07:07:18.813Z,99127.97
2023-04-21T07:12:24.132Z,99134.72
2023-04-21T07:17:27.747Z,99122.56
2023-04-21T07:22:31.674Z,99121.72
2023-04-21T07:27:37.260Z,99111.44
2023-04-21T07:32:40.964Z,99103.44
2023-04-21T07:37:44.653Z,99097.50
2023-04-21T07:42:49.622Z,99092.72
2023-04-21T07:47:53.191Z,99090.16
2023-04-21T07:52:56.804Z,99089.19
2023-04-21T07:58:01.791Z,99088.28
2023-04-21T08:03:05.696Z,99088.91
2023-04-21T08:08:10.006Z,99082.66
2023-04-21T08:13:15.080Z,99077.34
2023-04-21T08:18:22.093Z,99067.28
2023-04-21T08:23:26.326Z,99063.69
2023-04-21T08:28:31.255Z,99057.16
2023-04-21T08:33:34.840Z,99042.16
2023-04-21T08:38:39.021Z,99048.56
2023-04-21T08:43:44.095Z,99036.06
2023-04-21T08:48:48.902Z,99027.53
2023-04-21T08:53:52.486Z,99031.19
2023-04-21T08:58:57.680Z,99022.72
2023-04-21T09:04:17.648Z,99013.66
2023-04-21T09:09:21.907Z,99017.59
2023-04-21T09:14:34.133Z,99010.88
2023-04-21T09:19:37.841Z,99010.69
2023-04-21T09:24:47.101Z,99001.22
2023-04-21T09:29:52.130Z,98995.72
2023-04-21T09:35:01.587Z,98992.22
2023-04-21T09:40:08.920Z,98969.72
2023-04-21T09:50:51.287Z,98978.38
2023-04-21T09:55:49.363Z,98971.66
2023-04-21T10:00:57.565Z,98974.13
2023-04-21T10:06:02.229Z,98964.28
2023-04-21T10:11:06.904Z,98964.63
2023-04-21T10:16:12.311Z,98957.09
2023-04-21T10:21:22.265Z,98943.19
2023-04-21T10:26:27.519Z,98953.13
2023-04-21T10:31:34.802Z,98937.84
2023-04-21T10:36:45.113Z,98948.06
2023-04-21T10:41:49.002Z,98920.75
2023-04-21T10:46:55.167Z,98928.59
2023-04-21T10:52:06.419Z,98919.50
2023-04-21T10:57:11.652Z,98915.09
2023-04-21T11:02:18.753Z,98916.50
2023-04-21T11:07:24.359Z,98911.00
2023-04-21T11:12:32.808Z,98914.06
2023-04-21T11:17:40.082Z,98893.78
2023-04-21T11:22:43.750Z,98898.00
2023-04-21T11:27:56.107Z,98892.56
2023-04-21T11:33:01.296Z,98892.66
2023-04-21T11:38:06.866Z,98875.13
2023-04-21T11:43:10.546Z,98880.19
2023-04-21T11:48:19.754Z,98864.41
2023-04-21T11:53:23.405Z,98884.00
2023-04-21T11:58:28.325Z,98874.91
2023-04-21T12:03:34.074Z,98870.28
2023-04-21T12:08:37.710Z,98859.69
2023-04-21T12:13:42.022Z,98864.16
2023-04-21T12:18:46.857Z,98852.94
2023-04-21T12:23:50.594Z,98852.28
2023-04-21T12:28:54.626Z,98844.22
2023-04-21T12:33:59.597Z,98844.16
2023-04-21T12:39:03.331Z,98849.63
2023-04-21T12:44:07.527Z,98837.81
2023-04-21T12:49:12.559Z,98833.56
2023-04-21T12:54:16.319Z,98825.50
2023-04-21T12:59:19.902Z,98822.78
2023-04-21T13:04:25.192Z,98821.78
2023-04-21T13:09:29.030Z,98819.06
2023-04-21T13:14:32.603Z,98820.91
2023-04-21T13:19:37.518Z,98818.16
2023-04-21T13:24:41.350Z,98816.72
2023-04-21T13:29:45.711Z,98812.59
2023-04-21T13:34:50.638Z,98817.28
2023-04-21T13:39:54.225Z,98796.31
2023-04-21T13:44:57.751Z,98801.50
2023-04-21T13:50:03.107Z,98798.59
2023-04-21T13:55:08.900Z,98785.25
2023-04-21T14:00:13.368Z,98781.25
2023-04-21T14:05:18.247Z,98778.38
2023-04-21T14:10:22.097Z,98768.59
2023-04-21T14:15:26.229Z,98777.47
2023-04-21T14:20:31.264Z,98769.66
2023-04-21T14:25:34.793Z,98765.94
2023-04-21T14:30:38.700Z,98754.94
2023-04-21T14:35:43.617Z,98770.84
2023-04-21T14:40:47.089Z,98766.97
2023-04-21T14:45:50.903Z,98754.88
2023-04-21T14:50:58.029Z,98756.94
2023-04-21T14:56:01.814Z,98750.63
2023-04-21T15:01:05.885Z,98746.41
2023-04-21T15:06:11.236Z,98754.81
2023-04-21T15:11:14.890Z,98752.34
2023-04-21T15:16:18.389Z,98750.50
2023-04-21T15:21:23.466Z,98745.03
2023-04-21T15:26:27.008Z,98752.47
2023-04-21T15:31:30.687Z,98747.69
2023-04-21T15:36:35.881Z,98748.59
2023-04-21T15:41:39.557Z,98745.88
2023-04-21T15:46:43.550Z,98751.84
2023-04-21T15:51:48.669Z,98744.31
2023-04-21T15:56:52.124Z,98746.13
2023-04-21T16:01:57.173Z,98741.34
2023-04-21T16:07:02.379Z,98738.16
2023-04-21T16:12:10.282Z,98737.66
2023-04-21T16:17:14.728Z,98731.16
2023-04-21T16:22:20.502Z,98742.63
2023-04-21T16:27:24.079Z,98750.84
2023-04-21T16:32:27.620Z,98746.78
2023-04-21T16:37:32.629Z,98748.13
2023-04-21T16:42:36.221Z,98753.75
2023-04-21T16:47:42.094Z,98761.13
2023-04-21T16:52:47.594Z,98755.25
2023-04-21T16:57:51.263Z,98757.28
2023-04-21T17:02:54.855Z,98760.03
2023-04-21T17:07:59.878Z,98755.84
2023-04-21T17:13:04.567Z,98764.91
2023-04-21T17:18:08.127Z,98762.63
2023-04-21T17:23:13.197Z,98753.44
2023-04-21T17:28:16.804Z,98754.81
2023-04-21T17:33:20.335Z,98755.16
2023-04-21T17:38:25.471Z,98755.47
2023-04-21T17:43:29.287Z,98746.38
2023-04-21T17:48:32.917Z,98737.38
2023-04-21T17:53:37.763Z,98738.63
2023-04-21T17:58:41.550Z,98741.47
2023-04-21T18:03:45.280Z,98734.97
2023-04-21T18:08:50.364Z,98727.56
2023-04-21T18:13:54.456Z,98728.69
2023-04-21T18:18:57.878Z,98726.28
2023-04-21T18:24:02.872Z,98723.91
2023-04-21T18:29:06.472Z,98719.09
2023-04-21T18:34:11.884Z,98717.56
2023-04-21T18:39:16.811Z,98711.56
2023-04-21T18:44:20.079Z,98696.16
2023-04-21T18:49:23.776Z,98692.94
2023-04-21T18:54:28.655Z,98697.28
2023-04-21T18:59:31.775Z,98698.34
2023-04-21T19:04:35.353Z,98699.34
2023-04-21T19:09:40.364Z,98690.84
2023-04-21T19:14:47.446Z,98698.75
2023-04-21T19:19:51.457Z,98692.75
2023-04-21T19:24:57.246Z,98691.09
2023-04-21T19:30:00.898Z,98685.13
2023-04-21T19:35:04.901Z,98692.94
2023-04-21T19:40:11.485Z,98683.53
2023-04-21T19:45:14.985Z,98684.53
2023-04-21T19:50:18.718Z,98669.06
2023-04-21T19:55:24.094Z,98679.38
2023-04-21T20:00:27.687Z,98675.94
2023-04-21T20:05:31.195Z,98676.78
2023-04-21T20:10:37.666Z,98668.16
2023-04-21T20:15:42.199Z,98676.88
2023-04-21T20:20:45.808Z,98661.44
2023-04-21T20:25:50.714Z,98679.53
2023-04-21T20:30:53.962Z,98681.25
2023-04-21T20:35:57.500Z,98682.06
2023-04-21T20:41:02.516Z,98645.00
2023-04-21T20:46:06.134Z,98685.41
2023-04-21T20:51:09.684Z,98676.81
2023-04-21T20:56:14.555Z,98672.56
2023-04-21T21:01:18.348Z,98675.16
2023-04-21T21:06:22.346Z,98684.56
2023-04-21T21:11:27.380Z,98673.34
2023-04-21T21:16:31.524Z,98680.13
2023-04-21T21:21:34.995Z,98679.28
2023-04-21T21:26:42.533Z,98675.75
2023-04-21T21:31:46.515Z,98675.63
2023-04-21T21:36:50.044Z,98665.25
2023-04-21T21:41:55.317Z,98673.81
2023-04-21T21:46:58.829Z,98676.56
2023-04-21T21:52:02.776Z,98678.47
2023-04-21T21:57:07.810Z,98681.97
2023-04-21T22:02:11.410Z,98675.88
2023-04-21T22:07:15.106Z,98680.22
2023-04-21T22:12:20.014Z,98679.38
2023-04-21T22:17:23.797Z,98676.75
2023-04-21T22:22:27.382Z,98680.16
2023-04-21T22:27:33.879Z,98674.91
2023-04-21T22:32:37.710Z,98676.63
2023-04-21T22:37:41.153Z,98667.97
2023-04-21T22:42:46.163Z,98673.97
2023-04-21T22:47:49.823Z,98667.97
2023-04-21T22:52:53.511Z,98666.25
2023-04-21T22:57:58.412Z,98667.06
2023-04-21T23:03:01.860Z,98661.91
2023-04-21T23:08:05.762Z,98662.81
2023-04-21T23:13:11.100Z,98660.22
2023-04-21T23:18:14.563Z,98659.38
2023-04-21T23:23:19.763Z,98660.28
2023-04-21T23:28:25.103Z,98662.09
2023-04-21T23:33:28.650Z,98654.41
2023-04-21T23:38:32.116Z,98654.50
2023-04-21T23:43:37.400Z,98650.25
2023-04-21T23:48:40.818Z,98652.91
2023-04-21T23:53:44.398Z,98655.63
2023-04-21T23:58:49.347Z,98641.03
